Tiempo atmosférico en la estación meteorológica de Aldeanueva de Serrezuela, Segovia (1135 m.)

Fecha
DESCASC
Temp. máxima en grados centígrados (hora)
DESCASC
Temp. mínima en grados centígrados (hora)
DESCASC
Temp. media en grados centígrados
DESCASC
Racha de viento máxima en m/sg (hora)
DESCASC
Velocidad máxima media en intervalos de 10 minutos(hora)
DESCASC
Precipitaciones diarias en mm
DESCASC
Precipitaciones de 00:00 a 06:00 en mm
DESCASC
Precipitaciones de 06:00 a 12:00 en mm
DESCASC
Precipitaciones de 12:00 a 18:00 en mm
DESCASC
Precipitaciones de 18:00 a 24:00 en mm
DESCASC
17-09-2017 17.4 (17:30) 6.3 (08:00) 11.8 9.44 (13:40) 6.11 (16:00) 0 0 0 0 0
16-09-2017 15.4 (17:20) 3.1 (06:40) 9.2 8.06 (15:10) 5.28 (19:20) 0 0 0 0 0
15-09-2017 14.8 (15:20) 4.9 (07:30) 9.9 10.56 (17:20) 6.11 (16:00) 0 0 0 0 0
14-09-2017 20.8 (15:00) 10.6 (00:00) 15.7 8.89 (17:20) 5.28 (17:30) 0 0 0 0 0
13-09-2017 26.3 (17:00) 13.8 (00:00) 20 10.56 (15:50) 6.11 (13:20) 0 0 0 0 0
12-09-2017 20.7 (18:10) 9.6 (00:00) 15.2 8.89 (16:40) 5.56 (17:10) 0 0 0 0 0
11-09-2017 23.2 (16:40) 11.4 (00:00) 17.3 12.22 (16:20) 8.06 (17:20) 0 0 0 0 0
10-09-2017 18.9 (18:50) 6.4 (00:00) 12.6 10.28 (13:20) 5.83 (16:50) 0 0 0 0 0
09-09-2017 18.9 (00:00) 8 (00:00) 13.4 12.78 (18:50) 7.78 (16:30) 0 0 0 0 0
08-09-2017 25.3 (17:00) 14.1 (00:00) 19.7 11.11 (14:10) 6.94 (14:20) 0 0 0 0 0
07-09-2017 23.3 (16:50) 8.4 (00:00) 15.8 5.28 (18:00) 3.33 (18:00) 0 0 0 0 0
06-09-2017 25.1 (16:20) 12.4 (00:00) 18.8 8.33 (18:40) 5 (18:00) 0 0 0 0 0
05-09-2017 27.7 (18:10) 16.2 (00:00) 22 7.22 (16:40) 4.44 (14:40) 0 0 0 0 0
04-09-2017 23.3 (19:30) 13.4 (00:00) 18.3 8.33 (04:40) 5.56 (04:40) 0 0 0 0 0
03-09-2017 26.1 (18:00) 16.3 (00:00) 21.2 10.56 (14:20) 6.67 (14:20) 0 0 0 0 0
02-09-2017 22.3 (18:40) 6.5 (00:00) 14.4 5.83 (13:20) 3.33 (14:00) 0 0 0 0 0
01-09-2017 19.6 (16:00) 10.5 (00:00) 15.1 9.17 (16:50) 5.28 (17:00) 0 0 0 0 0
31-08-2017 21 (17:00) 11 (00:00) 16 5.83 (15:30) 3.61 (17:10) 2.4 2.4 0 0 0
30-08-2017 22.2 (17:10) 13 (00:00) 17.6 10.83 (21:00) 6.67 (21:00) 1 0 0 0 1
29-08-2017 22.6 (17:50) 12.9 (00:00) 17.8 14.17 (18:20) 6.94 (02:30) 0 0 0 0 0
28-08-2017 18.9 (03:40) 13.2 (00:00) 16 23.61 (04:00) 12.78 (04:00) 26.6 1.8 9.8 14.6 0.4
27-08-2017 23.3 (00:00) 12.3 (00:00) 17.8 20.28 (20:10) 13.89 (20:10) 16.2 0 0.8 10.6 4.8
26-08-2017 28.1 (16:10) 19.8 (00:00) 23.9 18.06 (18:50) 11.67 (18:50) 0 0 0 0 0
25-08-2017 30.9 (16:20) 14.6 (00:00) 22.8 14.44 (14:30) 7.78 (11:50) 0 0 0 0 0
24-08-2017 31.4 (17:00) 18.1 (00:00) 24.8 15.28 (14:10) 10 (13:40) 0 0 0 0 0
23-08-2017 31.8 (17:30) 20.7 (00:00) 26.3 10.28 (16:10) 6.11 (16:10) 0 0 0 0 0
22-08-2017 32.5 (16:00) 23 (00:00) 27.8 11.11 (17:10) 6.94 (16:30) 0 0 0 0 0

Gráficas

Temp. máximas Temp. mínimas Temp. medias Precipitaciones Rachas de viento máximas Velocidades máximas media en intervalos de 10 minutos

Datos horarios

Fecha y hora oficial Temperatura (ºC) Velocidad del viento (km/h) Dirección del viento Racha (km/h) Dirección de racha Precipitación (mm) Presión (hPa) Tendencia (hPa) Humedad (%)
2017-09-20 23:00:00 17.3 8 Sudeste 12 Sudeste 0 -- -- 37
2017-09-20 22:00:00 16.9 9 Sudeste 10 Sudeste 0 -- -- 39
2017-09-20 21:00:00 16.4 8 Este 9 Este 0 -- -- 40
2017-09-20 20:00:00 20.9 6 Norte 13 Nordeste 0 -- -- 32
2017-09-20 19:00:00 23.7 3 Norte 16 Oeste 0 -- -- 28
2017-09-20 18:00:00 24.1 7 Oeste 20 Oeste 0 -- -- 26
2017-09-20 17:00:00 23.8 8 Noroeste 24 Oeste 0 -- -- 26
2017-09-20 16:00:00 23.7 12 Noroeste 17 Oeste 0 -- -- 28
2017-09-20 15:00:00 22.4 6 Noroeste 19 Noroeste 0 -- -- 31
2017-09-20 14:00:00 21.3 9 Norte 16 Norte 0 -- -- 33
2017-09-20 13:00:00 20.4 9 Norte 18 Nordeste 0 -- -- 34
2017-09-20 12:00:00 19.8 5 Norte 16 Norte 0 -- -- 33
2017-09-20 11:00:00 18.8 8 Nordeste 13 Nordeste 0 -- -- 33
2017-09-20 10:00:00 17 6 Nordeste 9 Nordeste 0 -- -- 38
2017-09-20 09:00:00 13.8 6 Este 10 Este 0 -- -- 51
2017-09-20 08:00:00 12 9 Sudeste 10 Sudeste 0 -- -- 53
2017-09-20 07:00:00 10.8 7 Este 10 Este 0 -- -- 56
2017-09-20 06:00:00 11.5 10 Este 13 Este 0 -- -- 54
2017-09-20 05:00:00 11.5 10 Este 14 Este 0 -- -- 53
2017-09-20 04:00:00 11 12 Este 14 Este 0 -- -- 41
2017-09-20 03:00:00 10.8 12 Este 13 Este 0 -- -- 49
2017-09-20 02:00:00 11.5 9 Sudeste 11 Sudeste 0 -- -- 48
2017-09-20 01:00:00 11.9 9 Sudeste 10 Sudeste 0 -- -- 48
2017-09-20 00:00:00 12.3 8 Este 13 Este 0 -- -- 48
2017-09-19 23:00:00 11.5 10 Este 15 Este 0 -- -- 50
2017-09-19 22:00:00 11.8 9 Este 12 Nordeste 0 -- -- 47
2017-09-19 21:00:00 13.5 5 Este 9 Norte 0 -- -- 44
2017-09-19 20:00:00 16.4 6 Norte 13 Norte 0 -- -- 38
2017-09-19 19:00:00 18.1 8 Nordeste 16 Noroeste 0 -- -- 37
2017-09-19 18:00:00 18.3 8 Norte 21 Nordeste 0 -- -- 35
2017-09-19 17:00:00 18.6 8 Norte 21 Norte 0 -- -- 38
2017-09-19 16:00:00 17.8 10 Norte 21 Norte 0 -- -- 40
2017-09-19 15:00:00 17.1 9 Noroeste 23 Noroeste 0 -- -- 46
2017-09-19 14:00:00 16.2 7 Norte 22 Noroeste 0 -- -- 51
2017-09-19 13:00:00 15.3 8 Noroeste 18 Noroeste 0 -- -- 56
2017-09-19 12:00:00 14 9 Noroeste 19 Noroeste 0 -- -- 60
2017-09-19 11:00:00 13.2 6 Nordeste 10 Este 0 -- -- 63
2017-09-19 10:00:00 11.7 2 Sudoeste 6 Sudeste 0 -- -- 77
2017-09-19 09:00:00 9.3 3 Sur 6 Sur 0 -- -- 87
2017-09-19 08:00:00 8.5 3 Oeste 6 Sur 0 -- -- 86
2017-09-19 07:00:00 8.1 3 Sur 4 Sur 0 -- -- 88
2017-09-19 06:00:00 8.7 0 Calma 2 Sudeste 0 -- -- 87
2017-09-19 05:00:00 8.6 2 Este 7 Nordeste 0 -- -- 88
2017-09-19 04:00:00 8.5 3 Nordeste 9 Este 0 -- -- 87
2017-09-19 03:00:00 8.5 8 Este 12 Nordeste 0 -- -- 88
2017-09-19 02:00:00 9.2 8 Este 13 Nordeste 0 -- -- 86
2017-09-19 01:00:00 10.1 5 Este 9 Nordeste 0 -- -- 80
2017-09-19 00:00:00 11.9 0 Calma 11 Oeste 0 -- -- 69
2017-09-18 23:00:00 13.1 5 Oeste 12 Oeste 0 -- -- 63
2017-09-18 22:00:00 13 5 Oeste 9 Sudoeste 0 -- -- 64
2017-09-18 21:00:00 13.9 6 Oeste 17 Oeste 0 -- -- 59
2017-09-18 20:00:00 16.4 11 Oeste 28 Noroeste 0 -- -- 51
2017-09-18 19:00:00 17.4 18 Noroeste 30 Noroeste 0 -- -- 47
2017-09-18 18:00:00 17.7 15 Oeste 31 Oeste 0 -- -- 45
2017-09-18 17:00:00 17.4 19 Oeste 33 Oeste 0 -- -- 46
2017-09-18 16:00:00 16.4 17 Oeste 33 Oeste 0 -- -- 52
2017-09-18 15:00:00 16 18 Oeste 29 Oeste 0 -- -- 57
2017-09-18 14:00:00 13.6 14 Oeste 28 Oeste 0 -- -- 70
2017-09-18 13:00:00 13.9 21 Sudoeste 31 Oeste 0.2 -- -- 67
2017-09-18 12:00:00 12.3 19 Oeste 33 Oeste 0 -- -- 73
2017-09-18 11:00:00 10.4 19 Sudoeste 33 Sudoeste 0 -- -- 81
2017-09-18 10:00:00 8.9 22 Sudoeste 31 Sudoeste 0 -- -- 88
2017-09-18 09:00:00 7.3 18 Sudoeste 29 Sudoeste 0 -- -- 90
2017-09-18 08:00:00 6.6 14 Sudoeste 26 Sudoeste 0 -- -- 88
2017-09-18 07:00:00 7.2 20 Sudoeste 31 Sudoeste 0.6 -- -- 84
2017-09-18 06:00:00 9.7 15 Sudoeste 23 Sudoeste 0 -- -- 60
2017-09-18 05:00:00 9.6 18 Sudoeste 27 Sudoeste 0 -- -- 56
2017-09-18 04:00:00 10.4 19 Sudoeste 29 Sudoeste 0 -- -- 50
2017-09-18 03:00:00 10.8 19 Sudoeste 29 Sudoeste 0 -- -- 48
2017-09-18 02:00:00 11.4 18 Sudoeste 27 Sudoeste 0 -- -- 49
2017-09-18 01:00:00 11.4 15 Sudoeste 21 Sudoeste 0 -- -- 47
2017-09-18 00:00:00 11.6 12 Sudoeste 15 Sudoeste 0 -- -- 45
2017-09-17 23:00:00 11.6 8 Sudoeste 10 Sudoeste 0 -- -- 46
2017-09-17 22:00:00 12.7 4 Sudoeste 6 Sudoeste 0 -- -- 43
2017-09-17 21:00:00 12.9 4 Sudoeste 12 Oeste 0 -- -- 43
2017-09-17 20:00:00 15 9 Oeste 24 Oeste 0 -- -- 37
2017-09-17 19:00:00 16.8 18 Oeste 26 Oeste 0 -- -- 35
2017-09-17 18:00:00 16.9 21 Oeste 32 Oeste 0 -- -- 33
2017-09-17 17:00:00 16.6 19 Oeste 33 Sudoeste 0 -- -- 32
2017-09-17 16:00:00 17.1 22 Oeste 34 Sudoeste 0 -- -- 36
2017-09-17 15:00:00 15.8 16 Oeste 33 Oeste 0 -- -- 42
2017-09-17 14:00:00 14.8 14 Oeste 34 Oeste 0 -- -- 46
2017-09-17 13:00:00 13.4 19 Sudoeste 28 Oeste 0 -- -- 50
2017-09-17 12:00:00 12.7 15 Sudoeste 25 Sudoeste 0 -- -- 51
2017-09-17 11:00:00 11.2 10 Oeste 17 Oeste 0 -- -- 57
2017-09-17 10:00:00 10.1 10 Oeste 15 Oeste 0 -- -- 60
2017-09-17 09:00:00 7.4 10 Sudoeste 18 Sudoeste 0 -- -- 68
2017-09-17 08:00:00 6.3 12 Sudoeste 25 Sudoeste 0 -- -- 68
2017-09-17 07:00:00 7.3 18 Sudoeste 28 Sudoeste 0 -- -- 57
2017-09-17 06:00:00 8.2 15 Sudoeste 29 Sudoeste 0 -- -- 54
2017-09-17 05:00:00 8.9 18 Sudoeste 27 Sudoeste 0 -- -- 52
2017-09-17 04:00:00 7.4 13 Sudoeste 17 Sudoeste 0 -- -- 57
2017-09-17 03:00:00 8.1 10 Oeste 25 Sudoeste 0 -- -- 55
2017-09-17 02:00:00 10 18 Sur 23 Sur 0 -- -- 48
2017-09-17 01:00:00 9.8 14 Sudoeste 20 Sur 0 -- -- 48
2017-09-17 00:00:00 9.7 13 Sudoeste 17 Sudoeste 0 -- -- 49
2017-09-16 23:00:00 9.8 12 Sudoeste 16 Sudoeste 0 -- -- 49
2017-09-16 22:00:00 9.6 10 Sudoeste 13 Sudoeste 0 -- -- 50
2017-09-16 21:00:00 10.1 7 Sudoeste 16 Oeste 0 -- -- 48
2017-09-16 20:00:00 12.9 8 Oeste 29 Oeste 0 -- -- 42
2017-09-16 19:00:00 13.8 9 Oeste 27 Noroeste 0 -- -- 40
2017-09-16 18:00:00 13.9 16 Oeste 28 Oeste 0 -- -- 40
2017-09-16 17:00:00 14.9 13 Noroeste 25 Sudoeste 0 -- -- 41
2017-09-16 16:00:00 13.8 14 Oeste 29 Sudoeste 0 -- -- 44
2017-09-16 15:00:00 12.7 12 Noroeste 23 Oeste 0 -- -- 48
2017-09-16 14:00:00 11.7 12 Noroeste 23 Noroeste 0 -- -- 52
2017-09-16 13:00:00 11.1 7 Oeste 16 Norte 0 -- -- 54
2017-09-16 12:00:00 10.2 8 Nordeste 21 Nordeste 0 -- -- 62
2017-09-16 11:00:00 9 9 Nordeste 16 Nordeste 0 -- -- 64
2017-09-16 10:00:00 8 6 Norte 12 Norte 0 -- -- 71
2017-09-16 09:00:00 5.4 5 Este 6 Este 0 -- -- 86
2017-09-16 08:00:00 4.1 3 Sudeste 6 Sudeste 0 -- -- 86
2017-09-16 07:00:00 3.3 2 Este 4 Este 0 -- -- 88
2017-09-16 06:00:00 3.8 2 Nordeste 5 Sudeste 0 -- -- 87
2017-09-16 05:00:00 3.7 5 Este 10 Este 0 -- -- 89
2017-09-16 04:00:00 4 9 Este 12 Este 0 -- -- 89
2017-09-16 03:00:00 3.6 5 Este 9 Este 0 -- -- 90
2017-09-16 02:00:00 3.7 6 Este 12 Nordeste 0 -- -- 89
2017-09-16 01:00:00 4.7 11 Nordeste 15 Nordeste 0 -- -- 86
2017-09-16 00:00:00 5.6 4 Nordeste 12 Nordeste 0 -- -- 83
2017-09-15 23:00:00 6.7 9 Nordeste 16 Norte 0 -- -- 78
2017-09-15 22:00:00 8.1 6 Nordeste 17 Nordeste 0 -- -- 69
2017-09-15 21:00:00 9.6 10 Nordeste 23 Norte 0 -- -- 62
2017-09-15 20:00:00 11.7 13 Nordeste 30 Nordeste 0 -- -- 54
2017-09-15 19:00:00 13.2 19 Norte 36 Norte 0 -- -- 49
2017-09-15 18:00:00 13.7 17 Norte 38 Nordeste 0 -- -- 47
2017-09-15 17:00:00 14.3 21 Norte 35 Norte 0 -- -- 46
2017-09-15 16:00:00 14 22 Norte 36 Norte 0 -- -- 49
2017-09-15 15:00:00 14.1 18 Norte 35 Norte 0 -- -- 48
2017-09-15 14:00:00 13.5 18 Norte 32 Nordeste 0 -- -- 49
2017-09-15 13:00:00 13 14 Nordeste 27 Nordeste 0 -- -- 50
2017-09-15 12:00:00 11.7 14 Norte 25 Norte 0 -- -- 55
2017-09-15 11:00:00 10.2 13 Norte 24 Norte 0 -- -- 61
2017-09-15 10:00:00 8.3 8 Norte 14 Nordeste 0 -- -- 75
2017-09-15 09:00:00 6.3 4 Este 9 Este 0 -- -- 89
2017-09-15 08:00:00 5.4 9 Este 12 Este 0 -- -- 92
2017-09-15 07:00:00 5.5 6 Nordeste 10 Nordeste 0 -- -- 90
2017-09-15 06:00:00 6.7 7 Nordeste 15 Nordeste 0 -- -- 87
2017-09-15 05:00:00 6.8 8 Nordeste 15 Nordeste 0 -- -- 88
2017-09-15 04:00:00 8.1 13 Nordeste 23 Nordeste 0 -- -- 84
2017-09-15 03:00:00 8.9 10 Nordeste 23 Nordeste 0 -- -- 80
2017-09-15 02:00:00 10 15 Nordeste 28 Este 0 -- -- 75
2017-09-15 01:00:00 11.1 16 Este 26 Nordeste 0 -- -- 75
2017-09-15 00:00:00 10.6 9 Nordeste 16 Nordeste 0 -- -- 75
2017-09-14 23:00:00 11.5 8 Nordeste 13 Nordeste 0 -- -- 71
2017-09-14 22:00:00 12.3 8 Nordeste 13 Nordeste 0 -- -- 68
2017-09-14 21:00:00 13.6 7 Nordeste 18 Nordeste 0 -- -- 64
2017-09-14 20:00:00 15.5 10 Nordeste 22 Nordeste 0 -- -- 60
2017-09-14 19:00:00 16.5 15 Norte 28 Norte 0 -- -- 60
2017-09-14 18:00:00 18 17 Norte 32 Norte 0 -- -- 56
2017-09-14 17:00:00 19.6 16 Norte 28 Norte 0 -- -- 53
2017-09-14 16:00:00 20.6 15 Norte 27 Norte 0 -- -- 54
2017-09-14 15:00:00 20.8 14 Noroeste 26 Noroeste 0 -- -- 53
2017-09-14 14:00:00 19.7 14 Oeste 28 Sudoeste 0 -- -- 53
2017-09-14 13:00:00 18.3 14 Oeste 23 Oeste 0 -- -- 57
2017-09-14 12:00:00 16.7 14 Noroeste 22 Oeste 0 -- -- 68
2017-09-14 11:00:00 16 9 Noroeste 21 Oeste 0 -- -- 67
2017-09-14 10:00:00 14.5 12 Oeste 20 Oeste 0 -- -- 74
2017-09-14 09:00:00 13.6 13 Sudoeste 24 Oeste 0 -- -- 74
2017-09-14 08:00:00 12.9 15 Sudoeste 21 Sudoeste 0 -- -- 74
2017-09-14 07:00:00 13.6 14 Sudoeste 21 Sudoeste 0 -- -- 66
2017-09-14 06:00:00 14.3 15 Sudoeste 24 Sudoeste 0 -- -- 61
2017-09-14 05:00:00 15.1 15 Sudoeste 20 Sudoeste 0 -- -- 59
2017-09-14 04:00:00 15.8 13 Sudoeste 17 Sudoeste 0 -- -- 53
2017-09-14 03:00:00 16.2 10 Sudoeste 13 Sudoeste 0 -- -- 54
2017-09-14 02:00:00 17.2 8 Sudoeste 13 Sudoeste 0 -- -- 44
2017-09-14 01:00:00 18.3 10 Sudoeste 15 Sudoeste 0 -- -- 38
2017-09-14 00:00:00 19.1 9 Sudoeste 13 Sudoeste 0 -- -- 41
2017-09-13 23:00:00 19.6 8 Sudoeste 12 Sudoeste 0 -- -- 43
2017-09-13 22:00:00 20.3 9 Sudoeste 12 Sur 0 -- -- 41
2017-09-13 21:00:00 21.4 9 Sudoeste 18 Oeste 0 -- -- 42
2017-09-13 20:00:00 24.3 13 Oeste 26 Oeste 0 -- -- 36
2017-09-13 19:00:00 25.6 16 Oeste 30 Oeste 0 -- -- 34
2017-09-13 18:00:00 25.9 16 Oeste 31 Oeste 0 -- -- 33
2017-09-13 17:00:00 26.3 14 Sudoeste 31 Oeste 0 -- -- 34
2017-09-13 16:00:00 25.6 13 Sudoeste 38 Oeste 0 -- -- 35
2017-09-13 15:00:00 24.5 19 Oeste 36 Sudoeste 0 -- -- 35
2017-09-13 14:00:00 23.8 16 Sudoeste 33 Sudoeste 0 -- -- 41
2017-09-13 13:00:00 22.2 19 Sudoeste 30 Sudoeste 0 -- -- 45
2017-09-13 12:00:00 20.6 12 Oeste 20 Oeste 0 -- -- 53
2017-09-13 11:00:00 19.2 7 Oeste 15 Sudoeste 0 -- -- 54
2017-09-13 10:00:00 18.3 6 Sudoeste 10 Sudoeste 0 -- -- 56
2017-09-13 09:00:00 16.3 6 Sudoeste 13 Sudoeste 0 -- -- 60
2017-09-13 08:00:00 14 10 Sur 16 Sudoeste 0 -- -- 68
2017-09-13 07:00:00 14.2 7 Sudoeste 15 Sudoeste 0 -- -- 63
2017-09-13 06:00:00 14.6 12 Sudoeste 16 Sudoeste 0 -- -- 60
2017-09-13 05:00:00 15.1 7 Sudoeste 14 Sudoeste 0 -- -- 58
2017-09-13 04:00:00 15 11 Sudoeste 15 Sur 0 -- -- 58
2017-09-13 03:00:00 14.1 10 Sudoeste 15 Sudoeste 0 -- -- 61
2017-09-13 02:00:00 16 10 Sudoeste 14 Sur 0 -- -- 54
2017-09-13 01:00:00 16.2 10 Sudoeste 14 Sudoeste 0 -- -- 53
2017-09-13 00:00:00 16.5 12 Sudoeste 15 Sudoeste 0 -- -- 53
2017-09-12 23:00:00 16.6 12 Sudoeste 17 Sudoeste 0 -- -- 53
2017-09-12 22:00:00 16.5 13 Sudoeste 17 Sudoeste 0 -- -- 54
2017-09-12 21:00:00 16.9 9 Sudoeste 17 Oeste 0 -- -- 53
2017-09-12 20:00:00 19.3 13 Oeste 27 Oeste 0 -- -- 46
2017-09-12 19:00:00 20.5 14 Oeste 26 Oeste 0 -- -- 45
2017-09-12 18:00:00 20.6 18 Oeste 32 Oeste 0 -- -- 44
2017-09-12 17:00:00 20.3 17 Oeste 32 Oeste 0 -- -- 45
2017-09-12 16:00:00 19.7 16 Oeste 30 Oeste 0 -- -- 46
2017-09-12 15:00:00 19.1 14 Oeste 27 Oeste 0 -- -- 48
2017-09-12 14:00:00 17.9 13 Noroeste 27 Noroeste 0 -- -- 50
2017-09-12 13:00:00 17.2 13 Oeste 27 Oeste 0 -- -- 55
2017-09-12 12:00:00 15.4 10 Oeste 24 Oeste 0 -- -- 63
2017-09-12 11:00:00 13.5 14 Oeste 23 Oeste 0 -- -- 69
2017-09-12 10:00:00 12.2 11 Sudoeste 18 Oeste 0 -- -- 82
2017-09-12 09:00:00 10.5 6 Sudoeste 16 Sudoeste 0 -- -- 90
2017-09-12 08:00:00 9.6 6 Sudoeste 9 Sudoeste 0 -- -- 92
2017-09-12 07:00:00 9.9 3 Sudoeste 8 Sudoeste 0 -- -- 91
2017-09-12 06:00:00 10.1 3 Sudoeste 7 Sudoeste 0 -- -- 90
2017-09-12 05:00:00 10.1 4 Sudoeste 11 Oeste 0 -- -- 88
2017-09-12 04:00:00 10.7 9 Oeste 16 Oeste 0 -- -- 84
2017-09-12 03:00:00 11.7 9 Oeste 20 Oeste 0 -- -- 75
2017-09-12 02:00:00 12.6 9 Oeste 16 Sudoeste 0 -- -- 69
2017-09-12 01:00:00 13.7 12 Oeste 18 Oeste 0 -- -- 64
2017-09-12 00:00:00 15.2 9 Oeste 24 Oeste 0 -- -- 58
2017-09-11 23:00:00 16.1 8 Oeste 19 Oeste 0 -- -- 53
2017-09-11 22:00:00 17.2 11 Oeste 23 Oeste 0 -- -- 49
2017-09-11 21:00:00 19.6 18 Oeste 36 Oeste 0 -- -- 44
2017-09-11 20:00:00 21.8 21 Oeste 40 Oeste 0 -- -- 41
2017-09-11 19:00:00 22.9 26 Oeste 41 Oeste 0 -- -- 43
2017-09-11 18:00:00 22.3 24 Oeste 41 Oeste 0 -- -- 45
2017-09-11 17:00:00 22.1 22 Oeste 44 Oeste 0 -- -- 47
2017-09-11 16:00:00 22.2 21 Oeste 39 Oeste 0 -- -- 49
2017-09-11 15:00:00 20.9 19 Oeste 35 Oeste 0 -- -- 55
2017-09-11 14:00:00 19.6 22 Oeste 40 Sudoeste 0 -- -- 63
2017-09-11 13:00:00 18.6 27 Sudoeste 42 Sudoeste 0 -- -- 67
2017-09-11 12:00:00 16.3 25 Sudoeste 35 Sudoeste 0 -- -- 78
2017-09-11 11:00:00 14.5 23 Sudoeste 36 Sudoeste 0 -- -- 84
2017-09-11 10:00:00 12.5 19 Sudoeste 36 Sudoeste 0 -- -- 92
2017-09-11 09:00:00 12.1 20 Sudoeste 36 Sudoeste 0 -- -- 89
2017-09-11 08:00:00 11.4 24 Sudoeste 40 Sudoeste 0 -- -- 89
2017-09-11 07:00:00 11.8 25 Sudoeste 36 Sudoeste 0 -- -- 83
2017-09-11 06:00:00 12.4 21 Sudoeste 32 Sudoeste 0 -- -- 76
2017-09-11 05:00:00 13 18 Sudoeste 33 Sudoeste 0 -- -- 69
2017-09-11 04:00:00 13.8 18 Sudoeste 27 Sudoeste 0 -- -- 69
2017-09-11 03:00:00 14 20 Sudoeste 30 Sudoeste 0 -- -- 63
2017-09-11 02:00:00 14.8 20 Sudoeste 34 Sudoeste 0 -- -- 48
2017-09-11 01:00:00 15.5 21 Sudoeste 31 Sudoeste 0 -- -- 43
2017-09-11 00:00:00 15.8 18 Sudoeste 30 Oeste 0 -- -- 42
2017-09-10 23:00:00 16.6 19 Sudoeste 26 Sudoeste 0 -- -- 40
2017-09-10 22:00:00 16.6 12 Sudoeste 21 Oeste 0 -- -- 41
2017-09-10 21:00:00 16.7 12 Oeste 22 Oeste 0 -- -- 40
2017-09-10 20:00:00 17.2 17 Oeste 31 Oeste 0 -- -- 37
2017-09-10 19:00:00 18.6 18 Oeste 32 Oeste 0 -- -- 34
2017-09-10 18:00:00 18.6 17 Oeste 31 Oeste 0 -- -- 37
2017-09-10 17:00:00 18 16 Oeste 31 Oeste 0 -- -- 39
2017-09-10 16:00:00 17.6 15 Oeste 32 Oeste 0 -- -- 41
2017-09-10 15:00:00 16.3 13 Oeste 30 Noroeste 0 -- -- 45
2017-09-10 14:00:00 14.9 14 Oeste 37 Sudoeste 0 -- -- 49
2017-09-10 13:00:00 13.8 16 Oeste 25 Oeste 0 -- -- 54
2017-09-10 12:00:00 12.2 14 Oeste 25 Oeste 0 -- -- 60
2017-09-10 11:00:00 10.7 10 Oeste 18 Oeste 0 -- -- 69
2017-09-10 10:00:00 8.9 12 Oeste 19 Oeste 0 -- -- 78
2017-09-10 09:00:00 7.5 6 Oeste 9 Sudoeste 0 -- -- 84
2017-09-10 08:00:00 6.7 5 Sudoeste 8 Sudoeste 0 -- -- 87
2017-09-10 07:00:00 7.6 2 Oeste 4 Noroeste 0 -- -- 85
2017-09-10 06:00:00 7 0 Calma 5 Noroeste 0 -- -- 85
2017-09-10 05:00:00 7.5 0 Calma 4 Nordeste 0 -- -- 84
2017-09-10 04:00:00 6.5 3 Este 6 Este 0 -- -- 87
2017-09-10 03:00:00 7.4 3 Norte 5 Norte 0 -- -- 84
2017-09-10 02:00:00 7.3 3 Nordeste 6 Norte 0 -- -- 83
2017-09-10 01:00:00 7.6 3 Nordeste 8 Nordeste 0 -- -- 82
2017-09-10 00:00:00 8 5 Nordeste 16 Nordeste 0 -- -- 80
2017-09-09 23:00:00 8.7 9 Nordeste 17 Nordeste 0 -- -- 79
2017-09-09 22:00:00 9.6 10 Nordeste 27 Nordeste 0 -- -- 77
2017-09-09 21:00:00 11.4 13 Nordeste 29 Nordeste 0 -- -- 69
2017-09-09 20:00:00 14 15 Norte 36 Noroeste 0 -- -- 55
2017-09-09 19:00:00 16.5 23 Noroeste 46 Oeste 0 -- -- 37
2017-09-09 18:00:00 18 26 Oeste 45 Oeste 0 -- -- 37
2017-09-09 17:00:00 17.7 26 Oeste 43 Noroeste 0 -- -- 38
2017-09-09 16:00:00 16.7 26 Oeste 41 Noroeste 0 -- -- 41
2017-09-09 15:00:00 16.5 22 Oeste 46 Oeste 0 -- -- 43
2017-09-09 14:00:00 15.7 22 Oeste 42 Oeste 0 -- -- 52
2017-09-09 13:00:00 14.6 21 Noroeste 40 Oeste 0 -- -- 63
2017-09-09 12:00:00 13.3 23 Oeste 36 Oeste 0 -- -- 69
2017-09-09 11:00:00 12.7 19 Oeste 37 Oeste 0 -- -- 78
2017-09-09 10:00:00 12.6 23 Oeste 38 Sudoeste 0 -- -- 81
2017-09-09 09:00:00 12.1 19 Oeste 30 Sudoeste 0 -- -- 80
2017-09-09 08:00:00 12 21 Sudoeste 31 Sudoeste 0 -- -- 74
2017-09-09 07:00:00 12 22 Sudoeste 30 Sudoeste 0 -- -- 70
2017-09-09 06:00:00 12.4 20 Sudoeste 29 Sudoeste 0 -- -- 64
2017-09-09 05:00:00 13.1 21 Sudoeste 32 Sudoeste 0 -- -- 56
2017-09-09 04:00:00 14 19 Sudoeste 29 Sudoeste 0 -- -- 46
2017-09-09 03:00:00 14.9 18 Sudoeste 28 Sudoeste 0 -- -- 39
2017-09-09 02:00:00 16.3 19 Sudoeste 27 Sudoeste 0 -- -- 44
2017-09-09 01:00:00 16.9 17 Sudoeste 28 Sudoeste 0 -- -- 36
2017-09-09 00:00:00 18.9 23 Sudoeste 33 Sudoeste 0 -- -- 29
2017-09-08 23:00:00 18.6 19 Sudoeste 26 Sudoeste 0 -- -- 27
2017-09-08 22:00:00 19 12 Sudoeste 14 Sudoeste 0 -- -- 30
2017-09-08 21:00:00 19.6 7 Sudoeste 15 Sudoeste 0 -- -- 29
2017-09-08 20:00:00 22.7 11 Oeste 30 Oeste 0 -- -- 25
2017-09-08 19:00:00 24.2 22 Oeste 33 Oeste 0 -- -- 23
2017-09-08 18:00:00 25.1 22 Oeste 37 Oeste 0 -- -- 24
2017-09-08 17:00:00 25.3 23 Oeste 36 Sudoeste 0 -- -- 23
2017-09-08 16:00:00 24.7 22 Oeste 37 Sudoeste 0 -- -- 24
2017-09-08 15:00:00 24.3 23 Oeste 40 Oeste 0 -- -- 23
2017-09-08 14:00:00 23.8 19 Oeste 36 Sudoeste 0 -- -- 27
2017-09-08 13:00:00 22.5 21 Oeste 31 Oeste 0 -- -- 32
2017-09-08 12:00:00 21.4 19 Sudoeste 27 Sudoeste 0 -- -- 30
2017-09-08 11:00:00 20 14 Oeste 22 Oeste 0 -- -- 33
2017-09-08 10:00:00 18.7 11 Sudoeste 17 Sudoeste 0 -- -- 37
2017-09-08 09:00:00 16.9 12 Sudoeste 18 Sudoeste 0 -- -- 38
2017-09-08 08:00:00 15.8 14 Sudoeste 17 Sudoeste 0 -- -- 38
2017-09-08 07:00:00 16 13 Sur 16 Sudoeste 0 -- -- 38
2017-09-08 06:00:00 16.2 12 Sur 15 Sur 0 -- -- 38
2017-09-08 05:00:00 16.4 12 Sudoeste 14 Sudoeste 0 -- -- 38
2017-09-08 04:00:00 16.4 10 Sur 13 Sur 0 -- -- 36
2017-09-08 03:00:00 16.9 9 Sur 11 Sur 0 -- -- 34
2017-09-08 02:00:00 17.2 8 Sur 11 Sur 0 -- -- 35
2017-09-08 01:00:00 15.9 10 Sudeste 11 Sudeste 0 -- -- 39
2017-09-08 00:00:00 15.7 9 Este 12 Este 0 -- -- 39
2017-09-07 23:00:00 14.8 10 Este 12 Este 0 -- -- 48
2017-09-07 22:00:00 15.2 9 Este 10 Este 0 -- -- 50
2017-09-07 21:00:00 18 5 Nordeste 11 Nordeste 0 -- -- 41
2017-09-07 20:00:00 20.2 8 Norte 15 Norte 0 -- -- 35
2017-09-07 19:00:00 22.3 8 Norte 17 Noroeste 0 -- -- 30
2017-09-07 18:00:00 23.1 12 Noroeste 19 Noroeste 0 -- -- 29
2017-09-07 17:00:00 23 10 Noroeste 18 Noroeste 0 -- -- 27
2017-09-07 16:00:00 22.3 10 Norte 18 Norte 0 -- -- 32
2017-09-07 15:00:00 20.8 6 Norte 18 Norte 0 -- -- 33
2017-09-07 14:00:00 19.9 10 Oeste 18 Oeste 0 -- -- 37
2017-09-07 13:00:00 19 6 Noroeste 13 Oeste 0 -- -- 48
2017-09-07 12:00:00 17 5 Oeste 10 Oeste 0 -- -- 58
2017-09-07 11:00:00 14.9 3 Oeste 7 Oeste 0 -- -- 78
2017-09-07 10:00:00 12.9 3 Noroeste 8 Norte 0 -- -- 86
2017-09-07 09:00:00 12.8 0 Calma 10 Sudeste 0 -- -- 91
2017-09-07 08:00:00 8.7 5 Sur 7 Sudeste 0 -- -- 92
2017-09-07 07:00:00 8.4 4 Sudoeste 6 Sudoeste 0 -- -- 93
2017-09-07 06:00:00 9.1 4 Sudoeste 10 Norte 0 -- -- 89
2017-09-07 05:00:00 12.6 6 Sudeste 8 Sudeste 0 -- -- 82
2017-09-07 04:00:00 11.9 5 Norte 10 Sudeste 0 -- -- 82
2017-09-07 03:00:00 10.2 6 Este 7 Sudeste 0 -- -- 92
2017-09-07 02:00:00 10.6 6 Norte 8 Norte 0 -- -- 87
2017-09-07 01:00:00 11.3 3 Noroeste 8 Norte 0 -- -- 83
2017-09-07 00:00:00 12.8 5 Nordeste 9 Norte 0 -- -- 80
2017-09-06 23:00:00 13.3 4 Este 9 Norte 0 -- -- 78
2017-09-06 22:00:00 14.9 5 Norte 11 Norte 0 -- -- 72
2017-09-06 21:00:00 17.1 6 Norte 17 Norte 0 -- -- 64
2017-09-06 20:00:00 19.7 9 Norte 24 Norte 0 -- -- 56
2017-09-06 19:00:00 22 16 Norte 30 Norte 0 -- -- 53
2017-09-06 18:00:00 23.9 18 Norte 30 Norte 0 -- -- 52
2017-09-06 17:00:00 25 8 Norte 21 Norte 0 -- -- 47
2017-09-06 16:00:00 24.6 13 Norte 26 Norte 0 -- -- 49
2017-09-06 15:00:00 24.5 14 Nordeste 23 Norte 0 -- -- 49
2017-09-06 14:00:00 23.7 10 Este 25 Nordeste 0 -- -- 50
2017-09-06 13:00:00 22.9 12 Nordeste 26 Nordeste 0 -- -- 52
2017-09-06 12:00:00 21.9 11 Este 20 Este 0 -- -- 56
2017-09-06 11:00:00 20.1 10 Este 19 Nordeste 0 -- -- 68
2017-09-06 10:00:00 17.4 7 Nordeste 10 Nordeste 0 -- -- 86
2017-09-06 09:00:00 15 4 Nordeste 11 Nordeste 0 -- -- 95
2017-09-06 08:00:00 13.9 6 Nordeste 10 Nordeste 0 -- -- 96
2017-09-06 07:00:00 14.1 5 Nordeste 15 Este 0 -- -- 95
2017-09-06 06:00:00 14.1 9 Este 15 Este 0 -- -- 96
2017-09-06 05:00:00 14.2 11 Este 14 Nordeste 0 -- -- 93
2017-09-06 04:00:00 14.4 9 Este 12 Este 0 -- -- 89
2017-09-06 03:00:00 17.1 6 Nordeste 14 Nordeste 0 -- -- 74
2017-09-06 02:00:00 19.6 12 Sudeste 15 Sudeste 0 -- -- 60
2017-09-06 01:00:00 18.4 7 Este 21 Nordeste 0 -- -- 68
2017-09-06 00:00:00 19.7 2 Nordeste 5 Noroeste 0 -- -- 58
2017-09-05 23:00:00 21.3 2 Oeste 9 Norte 0 -- -- 50
2017-09-05 22:00:00 21.3 4 Este 8 Sudeste 0 -- -- 48
2017-09-05 21:00:00 22.9 8 Sudeste 12 Nordeste 0 -- -- 45
2017-09-05 20:00:00 26.5 4 Norte 20 Noroeste 0 -- -- 38
2017-09-05 19:00:00 27.4 8 Noroeste 17 Oeste 0 -- -- 35
2017-09-05 18:00:00 27.5 8 Noroeste 21 Oeste 0 -- -- 36
2017-09-05 17:00:00 27.2 8 Norte 26 Sudoeste 0 -- -- 38
2017-09-05 16:00:00 26.8 15 Oeste 22 Oeste 0 -- -- 39
2017-09-05 15:00:00 26 11 Oeste 24 Oeste 0 -- -- 41
2017-09-05 14:00:00 25.4 13 Oeste 20 Sudoeste 0 -- -- 44
2017-09-05 13:00:00 24.5 5 Noroeste 14 Noroeste 0 -- -- 47
2017-09-05 12:00:00 23.3 7 Oeste 15 Oeste 0 -- -- 48
2017-09-05 11:00:00 22.2 5 Oeste 16 Sudoeste 0 -- -- 51
2017-09-05 10:00:00 20.4 8 Sudoeste 12 Sudoeste 0 -- -- 58
2017-09-05 09:00:00 18.3 8 Sudoeste 10 Sudoeste 0 -- -- 61
2017-09-05 08:00:00 16.9 8 Sudoeste 13 Sur 0 -- -- 64
2017-09-05 07:00:00 17.8 13 Sur 17 Sur 0 -- -- 61
2017-09-05 06:00:00 17.5 12 Sur 15 Sur 0 -- -- 61
2017-09-05 05:00:00 17.5 14 Sudeste 18 Sudeste 0 -- -- 61
2017-09-05 04:00:00 17.9 14 Sudeste 18 Sudeste 0 -- -- 60
2017-09-05 03:00:00 17.6 13 Sudeste 20 Sudeste 0 -- -- 62
2017-09-05 02:00:00 16.8 6 Este 10 Sudeste 0 -- -- 64
2017-09-05 01:00:00 16.5 9 Sudeste 12 Sudeste 0 -- -- 66
2017-09-05 00:00:00 16.2 8 Sudeste 9 Sudeste 0 -- -- 66
2017-09-04 23:00:00 18 5 Sudeste 6 Sudeste 0 -- -- 58
2017-09-04 22:00:00 18.2 4 Sur 6 Sudeste 0 -- -- 59
2017-09-04 21:00:00 20.7 0 Calma 6 Noroeste 0 -- -- 52
2017-09-04 20:00:00 22.9 4 Noroeste 11 Oeste 0 -- -- 45
2017-09-04 19:00:00 22.4 4 Oeste 7 Oeste 0 -- -- 48
2017-09-04 18:00:00 21.8 6 Norte 13 Norte 0 -- -- 49
2017-09-04 17:00:00 21.3 4 Norte 14 Oeste 0 -- -- 51
2017-09-04 16:00:00 22 9 Noroeste 16 Noroeste 0 -- -- 53
2017-09-04 15:00:00 20 7 Noroeste 18 Noroeste 0 -- -- 56
2017-09-04 14:00:00 19.2 11 Oeste 24 Oeste 0 -- -- 61
2017-09-04 13:00:00 18.2 13 Oeste 28 Oeste 0 -- -- 68
2017-09-04 12:00:00 17.5 17 Oeste 28 Oeste 0 -- -- 72
2017-09-04 11:00:00 16.2 17 Sudoeste 27 Oeste 0 -- -- 77
2017-09-04 10:00:00 14.4 14 Sudoeste 26 Oeste 0 -- -- 86
2017-09-04 09:00:00 13.5 17 Sudoeste 28 Sudoeste 0 -- -- 88
2017-09-04 08:00:00 13.5 15 Sudoeste 24 Oeste 0 -- -- 85
2017-09-04 07:00:00 13.9 17 Oeste 25 Sudoeste 0 -- -- 82
2017-09-04 06:00:00 14.2 14 Sudoeste 29 Sudoeste 0 -- -- 73
2017-09-04 05:00:00 15 18 Sudoeste 30 Sudoeste 0 -- -- 66
2017-09-04 04:00:00 15.4 18 Sudoeste 26 Sudoeste 0 -- -- 57
2017-09-04 03:00:00 15.6 16 Sudoeste 24 Sudoeste 0 -- -- 51
2017-09-04 02:00:00 16.7 15 Sudoeste 24 Sudoeste 0 -- -- 47
2017-09-04 01:00:00 17.5 11 Sudoeste 22 Oeste 0 -- -- 43
2017-09-04 00:00:00 18.6 14 Oeste 27 Oeste 0 -- -- 40
2017-09-03 23:00:00 19.5 14 Sudoeste 20 Sudoeste 0 -- -- 40
2017-09-03 22:00:00 20.8 13 Sudoeste 18 Sudoeste 0 -- -- 39
2017-09-03 21:00:00 22.2 10 Sudoeste 19 Oeste 0 -- -- 33
2017-09-03 20:00:00 24.4 13 Oeste 32 Oeste 0 -- -- 28
2017-09-03 19:00:00 25.5 18 Oeste 32 Oeste 0 -- -- 27
2017-09-03 18:00:00 26.1 19 Oeste 35 Oeste 0 -- -- 26
2017-09-03 17:00:00 24.7 18 Oeste 32 Oeste 0 -- -- 26
2017-09-03 16:00:00 24.5 18 Oeste 33 Oeste 0 -- -- 29
2017-09-03 15:00:00 24 20 Oeste 38 Sudoeste 0 -- -- 26
2017-09-03 14:00:00 23 21 Oeste 33 Oeste 0 -- -- 31
2017-09-03 13:00:00 22 22 Oeste 32 Sudoeste 0 -- -- 34
2017-09-03 12:00:00 20.9 15 Oeste 26 Oeste 0 -- -- 36
2017-09-03 11:00:00 19.6 17 Oeste 28 Oeste 0 -- -- 35
2017-09-03 10:00:00 18.7 16 Sudoeste 22 Sudoeste 0 -- -- 36
2017-09-03 09:00:00 17.3 13 Sudoeste 19 Sudoeste 0 -- -- 36
2017-09-03 08:00:00 17.2 12 Sudoeste 19 Sudoeste 0 -- -- 34
2017-09-03 07:00:00 17.3 11 Sudoeste 18 Sudoeste 0 -- -- 34
2017-09-03 06:00:00 17.2 12 Sudoeste 18 Sudoeste 0 -- -- 34
2017-09-03 05:00:00 16.5 11 Sudoeste 17 Sudoeste 0 -- -- 36
2017-09-03 04:00:00 16.4 10 Sudoeste 13 Sudoeste 0 -- -- 36
2017-09-03 03:00:00 16.3 11 Sudoeste 14 Sudoeste 0 -- -- 36
2017-09-03 02:00:00 16.7 9 Sudoeste 12 Sudoeste 0 -- -- 36
2017-09-03 01:00:00 16.4 8 Sudoeste 10 Sudoeste 0 -- -- 38
2017-09-03 00:00:00 16.8 8 Sur 9 Sur 0 -- -- 34
2017-09-02 23:00:00 16.9 4 Sur 5 Sur 0 -- -- 30
2017-09-02 22:00:00 17.2 2 Sudoeste 9 Sudoeste 0 -- -- 28
2017-09-02 21:00:00 17.8 6 Sudoeste 12 Oeste 0 -- -- 32
2017-09-02 20:00:00 20.8 8 Oeste 15 Noroeste 0 -- -- 28
2017-09-02 19:00:00 22 9 Noroeste 17 Oeste 0 -- -- 27
2017-09-02 18:00:00 22 7 Noroeste 19 Oeste 0 -- -- 32
2017-09-02 17:00:00 21.4 6 Sudoeste 14 Noroeste 0 -- -- 34
2017-09-02 16:00:00 19.9 6 Norte 18 Norte 0 -- -- 37
2017-09-02 15:00:00 19 11 Norte 18 Norte 0 -- -- 37
2017-09-02 14:00:00 18.1 12 Norte 21 Nordeste 0 -- -- 34
2017-09-02 13:00:00 16.5 6 Nordeste 14 Nordeste 0 -- -- 44
2017-09-02 12:00:00 15.3 5 Norte 10 Norte 0 -- -- 53
2017-09-02 11:00:00 13.7 3 Este 11 Nordeste 0 -- -- 63
2017-09-02 10:00:00 11.5 7 Nordeste 11 Este 0 -- -- 71
2017-09-02 09:00:00 9.5 6 Este 13 Este 0 -- -- 83
2017-09-02 08:00:00 6.8 9 Este 13 Este 0 -- -- 93
2017-09-02 07:00:00 6.7 8 Este 10 Este 0 -- -- 93
2017-09-02 06:00:00 6.9 7 Este 11 Este 0 -- -- 91
2017-09-02 05:00:00 7.7 7 Este 12 Este 0 -- -- 89
2017-09-02 04:00:00 8.6 10 Este 14 Este 0 -- -- 86
2017-09-02 03:00:00 8.3 10 Este 14 Este 0 -- -- 89
2017-09-02 02:00:00 9.1 6 Este 10 Nordeste 0 -- -- 85
2017-09-02 01:00:00 9.7 8 Este 13 Este 0 -- -- 83
2017-09-02 00:00:00 10.5 9 Este 16 Nordeste 0 -- -- 79
2017-09-01 23:00:00 11.4 13 Nordeste 20 Nordeste 0 -- -- 75
2017-09-01 22:00:00 12.8 10 Nordeste 22 Nordeste 0 -- -- 67
2017-09-01 21:00:00 14.8 14 Nordeste 26 Nordeste 0 -- -- 55
2017-09-01 20:00:00 16.7 14 Norte 30 Norte 0 -- -- 46
2017-09-01 19:00:00 18.1 15 Norte 26 Norte 0 -- -- 44
2017-09-01 18:00:00 18.5 15 Norte 30 Noroeste 0 -- -- 45
2017-09-01 17:00:00 18.8 19 Norte 33 Norte 0 -- -- 47
2017-09-01 16:00:00 19.6 13 Norte 22 Noroeste 0 -- -- 48
2017-09-01 15:00:00 19 13 Norte 26 Nordeste 0 -- -- 49
2017-09-01 14:00:00 18.2 10 Norte 22 Norte 0 -- -- 53
2017-09-01 13:00:00 17.8 11 Nordeste 22 Norte 0 -- -- 60
2017-09-01 12:00:00 16.7 10 Nordeste 18 Nordeste 0 -- -- 66
2017-09-01 11:00:00 14.9 11 Nordeste 19 Nordeste 0 -- -- 77
2017-09-01 10:00:00 17.5 5 Este 10 Este 0 -- -- 51
2017-09-01 09:00:00 14.2 8 Sudeste 14 Sudeste 0 -- -- 70
2017-09-01 08:00:00 11.9 12 Sudeste 17 Sudeste 0 -- -- 82
2017-09-01 07:00:00 11.4 13 Sudeste 15 Este 0 -- -- 83
2017-09-01 06:00:00 11.4 12 Sudeste 17 Sudeste 0 -- -- 86
2017-09-01 05:00:00 11.7 12 Sudeste 22 Este 0 -- -- 84
2017-09-01 04:00:00 12 10 Este 18 Este 0 -- -- 84
2017-09-01 03:00:00 12.4 12 Este 18 Este 0 -- -- 84
2017-09-01 02:00:00 12.5 11 Este 19 Este 0 -- -- 83
2017-09-01 01:00:00 13.9 13 Este 20 Este 0 -- -- 79
2017-09-01 00:00:00 13.4 13 Este 17 Este 0 -- -- 64
2017-08-31 23:00:00 13.3 10 Este 17 Este 0 -- -- 72
2017-08-31 22:00:00 14.2 10 Nordeste 15 Nordeste 0 -- -- 70
2017-08-31 21:00:00 16.5 6 Nordeste 17 Norte 0 -- -- 61
2017-08-31 20:00:00 18.7 12 Norte 18 Norte 0 -- -- 55
2017-08-31 19:00:00 20.3 9 Noroeste 18 Noroeste 0 -- -- 52
2017-08-31 18:00:00 20.4 8 Noroeste 21 Oeste 0 -- -- 55
2017-08-31 17:00:00 21 9 Noroeste 17 Noroeste 0 -- -- 57
2017-08-31 16:00:00 19.5 7 Norte 21 Oeste 0 -- -- 62
2017-08-31 15:00:00 19 4 Norte 17 Norte 0 -- -- 67
2017-08-31 14:00:00 17.3 9 Norte 17 Norte 0 -- -- 74
2017-08-31 13:00:00 15.8 10 Nordeste 14 Norte 0 -- -- 85
2017-08-31 12:00:00 15.3 5 Nordeste 9 Este 0 -- -- 87
2017-08-31 11:00:00 13.9 5 Nordeste 9 Nordeste 0 -- -- 100
2017-08-31 10:00:00 12.1 4 Nordeste 9 Nordeste 0 -- -- 100
2017-08-31 09:00:00 11.6 4 Este 8 Sudeste 0 -- -- 100
2017-08-31 08:00:00 11.2 0 Calma 4 Sur 0 -- -- 99
2017-08-31 07:00:00 11.9 3 Sur 5 Sur 0 -- -- 100
2017-08-31 06:00:00 12.2 0 Calma 10 Noroeste 0 -- -- 100
2017-08-31 05:00:00 12.7 6 Noroeste 10 Noroeste 0 -- -- 99
2017-08-31 04:00:00 13.4 5 Norte 8 Norte 0 -- -- 98
2017-08-31 03:00:00 13.5 3 Oeste 8 Sudoeste 0 -- -- 97
2017-08-31 02:00:00 13.6 0 Calma 8 Sudeste 0.2 -- -- 92
2017-08-31 01:00:00 13.6 5 Este 14 Oeste 2.2 -- -- 96
2017-08-31 00:00:00 14.1 8 Oeste 12 Oeste 0.6 -- -- 94
2017-08-30 23:00:00 14.2 8 Nordeste 19 Norte 0.4 -- -- 95
2017-08-30 22:00:00 15 11 Nordeste 31 Norte 0 -- -- 88
2017-08-30 21:00:00 18 24 Noroeste 39 Noroeste 0 -- -- 72
2017-08-30 20:00:00 20.7 12 Oeste 22 Oeste 0 -- -- 48
2017-08-30 19:00:00 21 17 Oeste 27 Oeste 0 -- -- 45
2017-08-30 18:00:00 21.3 18 Oeste 27 Sudoeste 0 -- -- 44
2017-08-30 17:00:00 22 18 Oeste 34 Sudoeste 0 -- -- 45
2017-08-30 16:00:00 20.9 16 Sudoeste 28 Sudoeste 0 -- -- 51
2017-08-30 15:00:00 20.8 17 Sudoeste 27 Sudoeste 0 -- -- 52
2017-08-30 14:00:00 20.3 15 Oeste 31 Sudoeste 0 -- -- 58
2017-08-30 13:00:00 19.4 17 Sudoeste 31 Sudoeste 0 -- -- 57
2017-08-30 12:00:00 18.6 14 Oeste 26 Oeste 0 -- -- 63
2017-08-30 11:00:00 18.1 12 Oeste 22 Oeste 0 -- -- 65
2017-08-30 10:00:00 16.6 13 Sudoeste 18 Oeste 0 -- -- 70
2017-08-30 09:00:00 14.5 12 Sudoeste 17 Sudoeste 0 -- -- 77
2017-08-30 08:00:00 13.3 9 Sudoeste 17 Sudoeste 0 -- -- 82
2017-08-30 07:00:00 13.3 9 Sudoeste 16 Oeste 0 -- -- 85
2017-08-30 06:00:00 13.4 6 Sudoeste 18 Sudoeste 0 -- -- 82
2017-08-30 05:00:00 13 11 Sudoeste 16 Sudoeste 0 -- -- 84
2017-08-30 04:00:00 13 10 Sudoeste 21 Sur 0 -- -- 87
2017-08-30 03:00:00 15.4 15 Sur 21 Sur 0 -- -- 73
2017-08-30 02:00:00 15.5 11 Sur 21 Sudeste 0 -- -- 69
2017-08-30 01:00:00 15.4 12 Sudeste 17 Sur 0 -- -- 70
2017-08-30 00:00:00 14.7 10 Sur 14 Sur 0 -- -- 71
2017-08-29 23:00:00 15.1 6 Sur 17 Este 0 -- -- 70
2017-08-29 22:00:00 15.7 13 Este 19 Nordeste 0 -- -- 71
2017-08-29 21:00:00 16 15 Sudoeste 35 Sudeste 0 -- -- 69
2017-08-29 20:00:00 17.9 14 Nordeste 21 Nordeste 0 -- -- 73
2017-08-29 19:00:00 19.3 16 Este 51 Este 0 -- -- 60
2017-08-29 18:00:00 22 8 Este 24 Este 0 -- -- 54
2017-08-29 17:00:00 21 11 Nordeste 22 Nordeste 0 -- -- 58
2017-08-29 16:00:00 20.3 14 Nordeste 26 Nordeste 0 -- -- 62
2017-08-29 15:00:00 21.6 10 Sur 23 Sur 0 -- -- 50
2017-08-29 14:00:00 20.6 9 Sudoeste 27 Este 0 -- -- 57
2017-08-29 13:00:00 20.1 10 Sur 24 Sudeste 0 -- -- 61
2017-08-29 12:00:00 18.3 10 Sur 21 Sudeste 0 -- -- 70
2017-08-29 11:00:00 16.7 3 Noroeste 9 Oeste 0 -- -- 80
2017-08-29 10:00:00 14.8 7 Oeste 17 Sudoeste 0 -- -- 85
2017-08-29 09:00:00 14.2 3 Oeste 12 Oeste 0 -- -- 87
2017-08-29 08:00:00 13.1 4 Oeste 20 Sur 0 -- -- 87
2017-08-29 07:00:00 13.4 4 Oeste 20 Sur 0 -- -- 84
2017-08-29 06:00:00 14.8 14 Sur 23 Sudeste 0 -- -- 78
2017-08-29 05:00:00 14.7 10 Sudeste 24 Sudeste 0 -- -- 80
2017-08-29 04:00:00 15.1 17 Sudeste 36 Sudeste 0 -- -- 79
2017-08-29 03:00:00 14.1 21 Sur 37 Sudeste 0 -- -- 84
2017-08-29 02:00:00 14 21 Sudeste 35 Sudeste -- -- -- 86
2017-08-29 01:00:00 14.5 14 Sudeste 33 Sudeste 0 -- -- 81
2017-08-29 00:00:00 13.3 14 Este 30 Sudeste 0 -- -- 96
2017-08-28 23:00:00 13.5 13 Este 26 Este 0 -- -- 94
2017-08-28 22:00:00 13.6 14 Este 35 Este 0 -- -- 94
2017-08-28 21:00:00 13.4 16 Este 36 Sudeste 0.2 -- -- 96
2017-08-28 20:00:00 13.5 24 Sudeste 37 Sudeste 0 -- -- 97
2017-08-28 19:00:00 14.1 18 Este 28 Este 0.2 -- -- 97
2017-08-28 18:00:00 14.4 10 Este 15 Este 2 -- -- 95
2017-08-28 17:00:00 14.3 8 Sur 23 Sudoeste 2 -- -- 94
2017-08-28 16:00:00 14.3 17 Sudoeste 31 Sudoeste 4 -- -- 94
2017-08-28 15:00:00 14.7 13 Este 26 Este 4 -- -- 95
2017-08-28 14:00:00 15.7 21 Sudeste 43 Sudeste 2 -- -- 88
2017-08-28 13:00:00 17.3 28 Sur 45 Sudoeste 0.6 -- -- 76
2017-08-28 12:00:00 17 10 Sur 18 Sur 0.4 -- -- 88
2017-08-28 11:00:00 17.8 6 Este 23 Sudeste 0 -- -- 88
2017-08-28 10:00:00 17.6 11 Sudeste 23 Sudeste 0 -- -- 87
2017-08-28 09:00:00 15.7 18 Sudeste 53 Sudoeste 9.4 -- -- 91
2017-08-28 08:00:00 16.7 26 Sudeste 36 Sudeste 0 -- -- 80
2017-08-28 07:00:00 16.9 26 Sudeste 34 Sudeste 0 -- -- 76
2017-08-28 06:00:00 17.1 21 Sudeste 29 Sudeste 0 -- -- 74
2017-08-28 05:00:00 15.4 13 Sudeste 42 Oeste 0.8 -- -- 79
2017-08-28 04:00:00 15.3 46 Sudoeste 85 Sudoeste 1 -- -- 80
2017-08-28 03:00:00 17.7 17 Sudeste 21 Sudeste 0 -- -- 70
2017-08-28 02:00:00 17.3 10 Sur 32 Sudeste 0 -- -- 73
2017-08-28 01:00:00 17 21 Sudeste 39 Sudeste 0 -- -- 74
2017-08-28 00:00:00 16.5 21 Sudeste 29 Sudeste 0 -- -- 76
2017-08-27 23:00:00 14.2 10 Nordeste 23 Este 0 -- -- 81
2017-08-27 22:00:00 12.7 9 Este 35 Sudeste 0.2 -- -- 89
2017-08-27 21:00:00 13.4 8 Sudeste 73 Sudoeste 4.4 -- -- 85
2017-08-27 20:00:00 20.2 11 Sudeste 40 Sur 0.2 -- -- 68
2017-08-27 19:00:00 20.5 29 Sudeste 55 Sudeste 0 -- -- 62
2017-08-27 18:00:00 21.2 24 Sudeste 42 Sudeste 0.2 -- -- 62
2017-08-27 17:00:00 20.1 18 Este 41 Sudeste 0 -- -- 70
2017-08-27 16:00:00 19 15 Este 28 Sudeste 0 -- -- 78
2017-08-27 15:00:00 17.3 19 Nordeste 27 Nordeste 0 -- -- 93
2017-08-27 14:00:00 14.9 14 Nordeste 32 Sudoeste 10.4 -- -- 97
2017-08-27 13:00:00 17.3 8 Noroeste 20 Este 0 -- -- 80
2017-08-27 12:00:00 17.6 14 Nordeste 21 Nordeste 0.2 -- -- 77
2017-08-27 11:00:00 18.2 15 Este 27 Este 0 -- -- 66
2017-08-27 10:00:00 16.3 14 Este 25 Oeste 0.2 -- -- 75
2017-08-27 09:00:00 18 12 Noroeste 37 Sudeste 0.4 -- -- 67
2017-08-27 08:00:00 20.9 18 Sudeste 33 Sudeste 0 -- -- 52
2017-08-27 07:00:00 20.9 13 Sudeste 21 Sudeste 0 -- -- 51
2017-08-27 06:00:00 20.6 13 Sudeste 28 Sudoeste 0 -- -- 50
2017-08-27 05:00:00 21.4 14 Sudoeste 28 Sur 0 -- -- 41
2017-08-27 04:00:00 22.2 22 Sudeste 31 Sudeste 0 -- -- 37
2017-08-27 03:00:00 22.3 20 Sudeste 27 Sudeste 0 -- -- 36
2017-08-27 02:00:00 22.4 18 Sudeste 30 Sudeste 0 -- -- 36
2017-08-27 01:00:00 22.8 21 Sudeste 28 Sudeste 0 -- -- 34
2017-08-27 00:00:00 23.3 20 Sudeste 29 Sudeste 0 -- -- 34
2017-08-26 23:00:00 22 17 Sudeste 26 Sudeste 0 -- -- 39
2017-08-26 22:00:00 21.4 19 Sudeste 29 Sudeste 0 -- -- 42
2017-08-26 21:00:00 22.1 23 Sur 38 Sur 0 -- -- 41
2017-08-26 20:00:00 22.4 24 Sur 55 Sudoeste 0 -- -- 41
2017-08-26 19:00:00 22 34 Sudoeste 65 Sudoeste 0 -- -- 45
2017-08-26 18:00:00 27 31 Sudoeste 47 Sur 0 -- -- 27
2017-08-26 17:00:00 26.5 30 Sudoeste 59 Sudoeste 0 -- -- 30
2017-08-26 16:00:00 27.7 27 Sudoeste 41 Sudoeste 0 -- -- 24
2017-08-26 15:00:00 27.4 13 Oeste 26 Oeste 0 -- -- 23
2017-08-26 14:00:00 25.8 10 Oeste 51 Oeste 0 -- -- 23
2017-08-26 13:00:00 25.8 28 Oeste 44 Oeste 0 -- -- 23
2017-08-26 12:00:00 26.5 20 Sudoeste 34 Sudoeste 0 -- -- 25
2017-08-26 11:00:00 25.1 17 Sudoeste 33 Sudoeste 0 -- -- 27
2017-08-26 10:00:00 24.1 18 Sudoeste 29 Sudoeste 0 -- -- 27
2017-08-26 09:00:00 21.7 12 Sudoeste 23 Sur 0 -- -- 30
2017-08-26 08:00:00 21.1 17 Sur 22 Sur 0 -- -- 30
2017-08-26 07:00:00 21 17 Sur 23 Sur 0 -- -- 31
2017-08-26 06:00:00 20.3 14 Sur 18 Sur 0 -- -- 33
2017-08-26 05:00:00 20.6 12 Sur 18 Sur 0 -- -- 31
2017-08-26 04:00:00 21 14 Sur 21 Sur 0 -- -- 30
2017-08-26 03:00:00 21.4 13 Sur 21 Sudoeste 0 -- -- 26
2017-08-26 02:00:00 21.6 15 Sudoeste 19 Sudoeste 0 -- -- 25
2017-08-26 01:00:00 21.6 14 Sur 19 Sudoeste 0 -- -- 22
2017-08-26 00:00:00 21.9 12 Sudoeste 16 Sudoeste 0 -- -- 21
2017-08-25 23:00:00 22.6 9 Sudoeste 14 Sudoeste 0 -- -- 23
2017-08-25 22:00:00 24.1 5 Sur 7 Sur 0 -- -- 22
2017-08-25 21:00:00 24.8 3 Sur 18 Oeste 0 -- -- 24
2017-08-25 20:00:00 27.7 12 Oeste 27 Oeste 0 -- -- 22
2017-08-25 19:00:00 28.1 16 Oeste 31 Oeste 0 -- -- 22
2017-08-25 18:00:00 29.7 19 Oeste 33 Sudoeste 0 -- -- 22
2017-08-25 17:00:00 30.6 16 Sudoeste 39 Oeste 0 -- -- 22
2017-08-25 16:00:00 30.3 19 Sudoeste 41 Sudoeste 0 -- -- 22
2017-08-25 15:00:00 29.8 22 Sudoeste 52 Oeste 0 -- -- 22
2017-08-25 14:00:00 28.4 26 Oeste 44 Sudoeste 0 -- -- 24
2017-08-25 13:00:00 26.6 24 Sudoeste 37 Sudoeste 0 -- -- 25
2017-08-25 12:00:00 25.1 24 Sudoeste 40 Sudoeste 0 -- -- 27
2017-08-25 11:00:00 23.9 17 Sudoeste 27 Sudoeste 0 -- -- 27
2017-08-25 10:00:00 22 13 Sudoeste 23 Oeste 0 -- -- 32
2017-08-25 09:00:00 19 10 Sudoeste 17 Sudoeste 0 -- -- 36
2017-08-25 08:00:00 14.6 8 Sudoeste 15 Sudoeste 0 -- -- 45
2017-08-25 07:00:00 15.9 13 Oeste 18 Oeste 0 -- -- 42
2017-08-25 06:00:00 17.1 8 Oeste 15 Sudoeste 0 -- -- 39
2017-08-25 05:00:00 18.5 7 Sudoeste 15 Sur 0 -- -- 35
2017-08-25 04:00:00 19.6 12 Sur 15 Sur 0 -- -- 35
2017-08-25 03:00:00 20.2 10 Sur 12 Sur 0 -- -- 32
2017-08-25 02:00:00 20.4 9 Sudoeste 10 Sudoeste 0 -- -- 31
2017-08-25 01:00:00 20.2 9 Sudoeste 12 Sudoeste 0 -- -- 32
2017-08-25 00:00:00 20.4 9 Sudoeste 12 Sudoeste 0 -- -- 34
2017-08-24 23:00:00 21.3 7 Sudoeste 9 Sudoeste 0 -- -- 33
2017-08-24 22:00:00 22.1 7 Sudoeste 15 Oeste 0 -- -- 31
2017-08-24 21:00:00 24.9 13 Oeste 30 Oeste 0 -- -- 25
2017-08-24 20:00:00 27.7 22 Oeste 36 Oeste 0 -- -- 21
2017-08-24 19:00:00 30.1 22 Sudoeste 40 Sudoeste 0 -- -- 21
2017-08-24 18:00:00 30.8 28 Sudoeste 49 Sudoeste 0 -- -- 18
2017-08-24 17:00:00 31.4 30 Sudoeste 53 Sudoeste 0 -- -- 17
2017-08-24 16:00:00 30.9 30 Sudoeste 55 Sudoeste 0 -- -- 20
2017-08-24 15:00:00 30.2 32 Sudoeste 55 Sudoeste 0 -- -- 22
2017-08-24 14:00:00 29.8 31 Sudoeste 52 Sudoeste 0 -- -- 23
2017-08-24 13:00:00 29.3 31 Sudoeste 53 Oeste 0 -- -- 24
2017-08-24 12:00:00 27.5 28 Sudoeste 43 Sudoeste 0 -- -- 29
2017-08-24 11:00:00 26.4 19 Sudoeste 35 Sudoeste 0 -- -- 31
2017-08-24 10:00:00 24.6 14 Sur 21 Sur 0 -- -- 38
2017-08-24 09:00:00 21.1 2 Sudeste 10 Sur 0 -- -- 53
2017-08-24 08:00:00 18.5 5 Sur 9 Sudeste 0 -- -- 55
2017-08-24 07:00:00 18.8 6 Nordeste 10 Oeste 0 -- -- 54
2017-08-24 06:00:00 19.6 8 Oeste 23 Sur 0 -- -- 50
2017-08-24 05:00:00 20.4 15 Sur 23 Sur 0 -- -- 48
2017-08-24 04:00:00 21.3 14 Sur 23 Sudoeste 0 -- -- 48
2017-08-24 03:00:00 22.5 10 Sur 21 Sudeste 0 -- -- 45
2017-08-24 02:00:00 21.9 6 Este 26 Sudeste 0 -- -- 53
2017-08-24 01:00:00 22.8 18 Sudeste 30 Sudeste 0 -- -- 54
2017-08-24 00:00:00 23.5 20 Sudeste 32 Sudeste 0 -- -- 50
2017-08-23 23:00:00 23.7 11 Sudeste 16 Este 0 -- -- 37
2017-08-23 22:00:00 26.1 5 Sur 9 Sur 0 -- -- 28
2017-08-23 21:00:00 27.9 5 Noroeste 26 Sudoeste 0 -- -- 26
2017-08-23 20:00:00 28.9 7 Oeste 23 Oeste 0 -- -- 25
2017-08-23 19:00:00 30.9 10 Oeste 24 Sudoeste 0 -- -- 23
2017-08-23 18:00:00 30.9 12 Sudoeste 22 Sudoeste 0 -- -- 23
2017-08-23 17:00:00 30.8 17 Sudoeste 37 Oeste 0 -- -- 25
2017-08-23 16:00:00 31.3 16 Oeste 27 Oeste 0 -- -- 25
2017-08-23 15:00:00 31 12 Oeste 23 Oeste 0 -- -- 25
2017-08-23 14:00:00 29.8 10 Oeste 20 Oeste 0 -- -- 25
2017-08-23 13:00:00 29.4 7 Oeste 18 Oeste 0 -- -- 28
2017-08-23 12:00:00 27.5 10 Oeste 19 Sudoeste 0 -- -- 30
2017-08-23 11:00:00 25.6 7 Norte 14 Noroeste 0 -- -- 38
2017-08-23 10:00:00 24.9 5 Oeste 14 Sudoeste 0 -- -- 35
2017-08-23 09:00:00 21.4 10 Sur 12 Sur 0 -- -- 39
2017-08-23 08:00:00 21 6 Sur 8 Sur 0 -- -- 38
2017-08-23 07:00:00 21.1 4 Sudoeste 12 Sudoeste 0 -- -- 38
2017-08-23 06:00:00 21.6 9 Sudoeste 15 Sudoeste 0 -- -- 37
2017-08-23 05:00:00 21.4 8 Sudoeste 11 Sudoeste 0 -- -- 39
2017-08-23 04:00:00 21.5 7 Sudoeste 10 Sudeste 0 -- -- 44
2017-08-23 03:00:00 23.7 4 Sudeste 10 Nordeste 0 -- -- 40
2017-08-23 02:00:00 23.7 5 Nordeste 13 Nordeste 0 -- -- 41
2017-08-23 01:00:00 24.3 6 Sudeste 8 Este 0 -- -- 38
2017-08-23 00:00:00 24.7 5 Este 9 Nordeste 0 -- -- 34
2017-08-22 23:00:00 26.4 8 Norte 19 Noroeste 0 -- -- 27
2017-08-22 22:00:00 26.2 5 Oeste 10 Noroeste 0 -- -- 28
2017-08-22 21:00:00 28.4 8 Noroeste 19 Noroeste 0 -- -- 27
2017-08-22 20:00:00 30.7 15 Oeste 31 Oeste 0 -- -- 22
2017-08-22 19:00:00 31.8 15 Oeste 36 Oeste 0 -- -- 24
2017-08-22 18:00:00 31.8 16 Oeste 40 Oeste 0 -- -- 28
2017-08-22 17:00:00 32.4 19 Oeste 37 Oeste 0 -- -- 27
2017-08-22 16:00:00 32.5 18 Sudoeste 35 Sudoeste 0 -- -- 28
2017-08-22 15:00:00 31.6 22 Oeste 38 Oeste 0 -- -- 30
2017-08-22 14:00:00 30.2 15 Oeste 34 Oeste 0 -- -- 35
2017-08-22 13:00:00 29.9 15 Oeste 27 Oeste 0 -- -- 35
2017-08-22 12:00:00 28.9 15 Oeste 28 Oeste 0 -- -- 37
2017-08-22 11:00:00 27.9 13 Noroeste 22 Noroeste 0 -- -- 40
2017-08-22 10:00:00 27.6 6 Sur 15 Sur 0 -- -- 40
2017-08-22 09:00:00 25.1 12 Sur 20 Sur 0 -- -- 45
2017-08-22 08:00:00 23.3 14 Sur 21 Sur 0 -- -- 49
2017-08-22 07:00:00 23.2 12 Sur 22 Sur 0 -- -- 47
2017-08-22 06:00:00 23.2 15 Sudoeste 23 Sur 0 -- -- 47
2017-08-22 05:00:00 23.1 18 Sudoeste 27 Sudoeste 0 -- -- 49
2017-08-22 04:00:00 23.7 18 Sudoeste 28 Sudoeste 0 -- -- 48
2017-08-22 03:00:00 24.5 18 Sudoeste 28 Sudoeste 0 -- -- 46
2017-08-22 02:00:00 25.2 20 Sudoeste 32 Sudoeste 0 -- -- 44
2017-08-22 01:00:00 26.3 22 Sudoeste 33 Sudoeste 0 -- -- 38
2017-08-22 00:00:00 26.7 16 Sur 24 Sur 0 -- -- 36